createdAt,value
2018-08-04T00:01:09.130Z,21.34
2018-08-04T00:03:37.411Z,21.44
2018-08-04T00:06:06.067Z,21.41
2018-08-04T00:08:34.363Z,21.53
2018-08-04T00:11:02.766Z,21.36
2018-08-04T00:13:31.122Z,21.25
2018-08-04T00:15:59.454Z,21.14
2018-08-04T00:18:27.748Z,20.90
2018-08-04T00:20:56.053Z,20.81
2018-08-04T00:23:24.678Z,20.67
2018-08-04T00:25:53.297Z,20.63
2018-08-04T00:28:21.706Z,20.58
2018-08-04T00:30:50.034Z,20.55
2018-08-04T00:33:18.391Z,20.53
2018-08-04T00:35:46.921Z,20.62
2018-08-04T00:38:15.346Z,20.51
2018-08-04T00:40:43.677Z,20.50
2018-08-04T00:43:12.033Z,20.61
2018-08-04T00:45:40.377Z,20.73
2018-08-04T00:48:08.736Z,20.86
2018-08-04T00:50:37.051Z,20.96
2018-08-04T00:53:05.574Z,20.73
2018-08-04T00:55:33.899Z,20.57
2018-08-04T00:58:02.209Z,20.55
2018-08-04T01:03:12.311Z,20.49
2018-08-04T01:05:40.774Z,20.30
2018-08-04T01:08:09.149Z,20.16
2018-08-04T01:10:37.432Z,19.89
2018-08-04T01:13:05.793Z,20.09
2018-08-04T01:15:34.111Z,20.17
2018-08-04T01:18:02.422Z,20.48
2018-08-04T01:20:30.780Z,20.14
2018-08-04T01:22:59.226Z,20.05
2018-08-04T01:25:27.601Z,19.93
2018-08-04T01:27:56.804Z,19.99
2018-08-04T01:30:25.270Z,19.82
2018-08-04T01:32:53.743Z,20.10
2018-08-04T01:35:22.018Z,20.19
2018-08-04T01:37:50.445Z,20.17
2018-08-04T01:40:18.785Z,20.06
2018-08-04T01:42:47.165Z,20.01
2018-08-04T01:45:15.689Z,19.99
2018-08-04T01:47:44.149Z,19.79
2018-08-04T01:50:12.532Z,19.87
2018-08-04T01:52:40.890Z,19.99
2018-08-04T01:55:09.277Z,20.25
2018-08-04T01:57:37.757Z,20.06
2018-08-04T02:00:06.122Z,20.14
2018-08-04T02:02:34.528Z,20.19
2018-08-04T02:05:02.859Z,20.10
2018-08-04T02:07:31.309Z,20.25
2018-08-04T02:09:59.642Z,20.25
2018-08-04T02:12:28.150Z,20.14
2018-08-04T02:14:56.534Z,20.17
2018-08-04T02:17:24.942Z,20.39
2018-08-04T02:19:53.278Z,20.20
2018-08-04T02:22:21.618Z,19.83
2018-08-04T02:24:50.053Z,19.70
2018-08-04T02:27:18.390Z,19.66
2018-08-04T02:29:46.701Z,19.77
2018-08-04T02:32:15.050Z,19.81
2018-08-04T02:34:43.356Z,19.61
2018-08-04T02:37:11.726Z,19.72
2018-08-04T02:39:40.103Z,19.60
2018-08-04T02:42:08.426Z,20.05
2018-08-04T02:44:36.779Z,20.05
2018-08-04T02:47:05.120Z,19.94
2018-08-04T02:49:34.093Z,19.44
2018-08-04T02:52:03.285Z,19.15
2018-08-04T02:54:34.333Z,19.09
2018-08-04T02:57:05.262Z,19.22
2018-08-04T02:59:33.553Z,19.39
2018-08-04T03:02:02.465Z,19.24
2018-08-04T03:04:33.155Z,19.27
2018-08-04T03:07:02.028Z,19.36
2018-08-04T03:09:33.227Z,19.57
2018-08-04T03:12:03.041Z,19.42
2018-08-04T03:14:32.188Z,19.38
2018-08-04T03:17:01.110Z,19.02
2018-08-04T03:19:31.477Z,19.14
2018-08-04T03:22:01.083Z,19.41
2018-08-04T03:24:29.493Z,19.31
2018-08-04T03:26:57.775Z,19.21
2018-08-04T03:29:26.076Z,19.38
2018-08-04T03:31:54.483Z,19.52
2018-08-04T03:34:22.963Z,19.40
2018-08-04T03:36:51.501Z,19.24
2018-08-04T03:39:20.843Z,19.33
2018-08-04T03:41:49.288Z,19.16
2018-08-04T03:44:18.871Z,18.90
2018-08-04T03:46:47.194Z,18.87
2018-08-04T03:49:16.382Z,18.71
2018-08-04T03:51:45.249Z,18.56
2018-08-04T03:54:14.644Z,18.94
2018-08-04T03:56:42.916Z,19.04
2018-08-04T03:59:11.212Z,18.96
2018-08-04T04:01:40.213Z,18.85
2018-08-04T04:04:08.523Z,19.07
2018-08-04T04:06:37.193Z,19.12
2018-08-04T04:09:11.705Z,19.06
2018-08-04T04:11:40.611Z,18.79
2018-08-04T04:14:10.311Z,18.72
2018-08-04T04:16:39.933Z,18.50
2018-08-04T04:19:08.333Z,18.33
2018-08-04T04:21:40.963Z,18.28
2018-08-04T04:24:10.562Z,18.36
2018-08-04T04:26:40.177Z,18.74
2018-08-04T04:29:08.548Z,19.10
2018-08-04T04:31:36.848Z,19.32
2018-08-04T04:34:05.793Z,19.43
2018-08-04T04:36:36.519Z,19.46
2018-08-04T04:39:07.430Z,19.46
2018-08-04T04:41:37.187Z,19.18
2018-08-04T04:44:06.180Z,19.04
2018-08-04T04:46:40.964Z,19.21
2018-08-04T04:49:11.641Z,19.17
2018-08-04T04:51:41.870Z,19.33
2018-08-04T04:54:12.510Z,19.73
2018-08-04T04:56:41.651Z,19.99
2018-08-04T04:59:11.688Z,20.04
2018-08-04T05:01:40.518Z,20.21
2018-08-04T05:04:10.441Z,20.21
2018-08-04T05:06:39.527Z,20.22
2018-08-04T05:09:09.668Z,20.39
2018-08-04T05:11:39.341Z,20.38
2018-08-04T05:14:08.374Z,20.37
2018-08-04T05:16:38.449Z,20.66
2018-08-04T05:19:07.838Z,20.75
2018-08-04T05:21:36.687Z,20.84
2018-08-04T05:24:05.419Z,20.88
2018-08-04T05:26:34.144Z,21.08
2018-08-04T05:29:03.123Z,21.11
2018-08-04T05:31:31.471Z,21.13
2018-08-04T05:33:59.845Z,21.24
2018-08-04T05:36:29.038Z,21.41
2018-08-04T05:38:57.597Z,21.49
2018-08-04T05:41:27.141Z,21.68
2018-08-04T05:43:55.993Z,21.71
2018-08-04T05:46:25.899Z,21.85
2018-08-04T05:48:56.210Z,21.96
2018-08-04T05:51:25.062Z,22.07
2018-08-04T05:54:05.064Z,22.16
2018-08-04T05:56:35.727Z,22.29
2018-08-04T05:59:07.082Z,22.39
2018-08-04T06:01:35.879Z,22.49
2018-08-04T06:04:13.985Z,22.61
2018-08-04T06:06:42.803Z,22.68
2018-08-04T06:09:12.308Z,22.80
2018-08-04T06:14:57.334Z,23.04
2018-08-04T06:20:18.765Z,23.16
2018-08-04T06:22:47.504Z,23.27
2018-08-04T06:25:16.439Z,23.32
2018-08-04T06:27:44.858Z,23.31
2018-08-04T06:36:52.104Z,23.28
2018-08-04T06:39:20.471Z,23.57
2018-08-04T06:41:52.792Z,23.76
2018-08-04T06:44:23.772Z,23.80
2018-08-04T06:46:54.289Z,23.87
2018-08-04T06:49:23.363Z,23.91
2018-08-04T07:06:12.050Z,24.44
2018-08-04T07:08:40.398Z,24.59
2018-08-04T07:11:08.704Z,24.66
2018-08-04T07:13:37.053Z,24.76
2018-08-04T07:16:05.420Z,24.75
2018-08-04T07:18:33.758Z,24.82
2018-08-04T07:21:05.248Z,24.92
2018-08-04T07:23:33.574Z,25.05
2018-08-04T07:26:04.083Z,25.19
2018-08-04T07:28:37.281Z,25.18
2018-08-04T07:31:08.931Z,25.48
2018-08-04T07:33:39.308Z,25.76
2018-08-04T07:36:10.195Z,25.92
2018-08-04T07:38:43.104Z,26.24
2018-08-04T07:41:16.757Z,26.50
2018-08-04T07:43:47.355Z,26.40
2018-08-04T07:46:16.096Z,26.22
2018-08-04T07:48:44.407Z,26.29
2018-08-04T07:51:12.996Z,26.34
2018-08-04T07:53:41.395Z,26.65
2018-08-04T07:56:09.858Z,26.50
2018-08-04T07:58:38.213Z,26.69
2018-08-04T08:01:07.198Z,26.52
2018-08-04T08:03:36.037Z,26.35
2018-08-04T08:06:04.403Z,26.38
2018-08-04T08:08:32.777Z,26.41
2018-08-04T08:11:01.180Z,26.45
2018-08-04T08:13:29.470Z,26.53
2018-08-04T08:15:57.771Z,26.55
2018-08-04T08:18:26.105Z,26.43
2018-08-04T08:20:54.743Z,26.42
2018-08-04T08:23:23.137Z,26.59
2018-08-04T08:26:03.531Z,26.72
2018-08-04T08:28:34.036Z,26.53
2018-08-04T08:31:02.362Z,26.50
2018-08-04T08:33:30.778Z,26.77
2018-08-04T08:35:59.143Z,26.84
2018-08-04T08:38:27.734Z,26.93
2018-08-04T08:40:56.125Z,26.98
2018-08-04T08:43:24.596Z,26.92
2018-08-04T08:45:52.954Z,26.90
2018-08-04T08:48:21.305Z,26.80
2018-08-04T08:50:49.588Z,26.97
2018-08-04T08:53:17.977Z,27.12
2018-08-04T08:55:46.318Z,27.11
2018-08-04T08:58:14.645Z,27.23
2018-08-04T09:00:42.959Z,26.97
2018-08-04T09:03:17.726Z,26.88
2018-08-04T09:05:46.043Z,26.97
2018-08-04T09:08:14.439Z,27.19
2018-08-04T09:10:42.752Z,27.08
2018-08-04T09:13:11.087Z,27.65
2018-08-04T09:15:39.378Z,27.63
2018-08-04T09:18:07.660Z,27.53
2018-08-04T09:20:35.979Z,27.53
2018-08-04T09:23:04.388Z,27.83
2018-08-04T09:25:32.669Z,28.11
2018-08-04T09:28:00.966Z,27.74
2018-08-04T09:30:29.296Z,27.51
2018-08-04T09:32:57.639Z,27.71
2018-08-04T09:35:26.034Z,27.92
2018-08-04T09:37:54.336Z,27.80
2018-08-04T09:40:22.659Z,27.83
2018-08-04T09:42:50.971Z,27.78
2018-08-04T09:45:19.299Z,27.89
2018-08-04T09:47:48.266Z,27.94
2018-08-04T09:50:16.681Z,28.08
2018-08-04T09:52:44.956Z,28.23
2018-08-04T09:55:13.367Z,28.29
2018-08-04T09:57:42.158Z,28.56
2018-08-04T10:00:17.354Z,28.73
2018-08-04T10:02:45.635Z,28.57
2018-08-04T10:05:14.059Z,28.80
2018-08-04T10:07:42.322Z,28.54
2018-08-04T10:10:10.600Z,28.81
2018-08-04T10:12:38.916Z,28.72
2018-08-04T10:15:08.271Z,28.98
2018-08-04T10:17:36.624Z,28.59
2018-08-04T10:20:05.822Z,28.39
2018-08-04T10:22:34.139Z,28.70
2018-08-04T10:25:02.462Z,28.75
2018-08-04T10:27:30.783Z,28.46
2018-08-04T10:29:59.083Z,28.57
2018-08-04T10:32:27.563Z,28.73
2018-08-04T10:34:55.882Z,28.85
2018-08-04T10:37:24.480Z,28.30
2018-08-04T10:39:52.946Z,28.75
2018-08-04T10:42:21.237Z,28.74
2018-08-04T10:44:49.636Z,28.37
2018-08-04T10:47:17.959Z,28.66
2018-08-04T10:49:46.230Z,28.87
2018-08-04T10:52:14.550Z,28.86
2018-08-04T10:54:42.863Z,28.88
2018-08-04T10:57:11.350Z,28.39
2018-08-04T10:59:39.658Z,28.60
2018-08-04T11:02:08.342Z,28.81
2018-08-04T11:04:36.702Z,28.71
2018-08-04T11:07:05.226Z,29.02
2018-08-04T11:09:33.546Z,28.94
2018-08-04T11:12:01.921Z,29.05
2018-08-04T11:14:30.390Z,29.33
2018-08-04T11:16:58.681Z,29.09
2018-08-04T11:19:27.023Z,28.87
2018-08-04T11:21:55.331Z,28.82
2018-08-04T11:24:23.678Z,29.08
2018-08-04T11:26:52.006Z,29.10
2018-08-04T11:29:20.321Z,29.27
2018-08-04T11:31:48.628Z,29.38
2018-08-04T11:34:17.048Z,29.55
2018-08-04T11:36:45.406Z,29.51
2018-08-04T11:39:13.797Z,29.55
2018-08-04T11:41:42.111Z,29.87
2018-08-04T11:44:10.472Z,29.68
2018-08-04T11:46:38.768Z,30.06
2018-08-04T11:49:07.260Z,29.64
2018-08-04T11:51:35.654Z,30.11
2018-08-04T11:54:04.231Z,30.26
2018-08-04T11:56:32.534Z,30.14
2018-08-04T11:59:00.803Z,30.12
2018-08-04T12:01:29.153Z,30.03
2018-08-04T12:03:57.460Z,29.95
2018-08-04T12:06:25.796Z,30.53
2018-08-04T12:08:54.076Z,30.28
2018-08-04T12:11:22.391Z,30.26
2018-08-04T12:13:50.833Z,30.17
2018-08-04T12:16:19.155Z,30.32
2018-08-04T12:18:47.437Z,30.13
2018-08-04T12:21:20.802Z,29.72
2018-08-04T12:24:11.064Z,29.72
2018-08-04T12:26:39.772Z,29.70
2018-08-04T12:29:08.502Z,30.26
2018-08-04T12:31:36.815Z,30.45
2018-08-04T12:34:05.464Z,30.48
2018-08-04T12:36:33.802Z,30.73
2018-08-04T12:39:02.136Z,30.75
2018-08-04T12:41:30.708Z,30.72
2018-08-04T12:43:59.026Z,30.98
2018-08-04T12:46:27.389Z,30.43
2018-08-04T12:48:55.710Z,30.49
2018-08-04T12:51:24.007Z,30.59
2018-08-04T12:53:52.328Z,30.74
2018-08-04T12:56:20.651Z,30.72
2018-08-04T12:58:48.951Z,30.89
2018-08-04T13:01:17.262Z,30.73
2018-08-04T13:03:45.530Z,30.57
2018-08-04T13:06:13.935Z,30.39
2018-08-04T13:08:42.289Z,30.26
2018-08-04T13:11:10.534Z,30.62
2018-08-04T13:13:38.858Z,30.72
2018-08-04T13:16:07.163Z,30.57
2018-08-04T13:18:35.436Z,30.78
2018-08-04T13:21:03.762Z,30.87
2018-08-04T13:23:32.079Z,30.81
2018-08-04T13:26:00.390Z,30.47
2018-08-04T13:28:28.779Z,30.55
2018-08-04T13:30:57.111Z,30.44
2018-08-04T13:33:25.405Z,30.68
2018-08-04T13:35:53.731Z,30.80
2018-08-04T13:38:22.190Z,30.67
2018-08-04T13:40:50.489Z,31.04
2018-08-04T13:43:19.342Z,31.01
2018-08-04T13:45:47.672Z,30.78
2018-08-04T13:48:16.228Z,30.74
2018-08-04T13:50:44.859Z,30.71
2018-08-04T13:53:31.322Z,30.98
2018-08-04T13:55:59.744Z,31.06
2018-08-04T13:58:28.941Z,30.94
2018-08-04T14:00:57.315Z,30.94
2018-08-04T14:03:25.625Z,30.91
2018-08-04T14:05:53.996Z,30.83
2018-08-04T14:08:22.309Z,30.92
2018-08-04T14:10:50.638Z,31.03
2018-08-04T14:13:18.937Z,31.06
2018-08-04T14:15:47.279Z,30.91
2018-08-04T14:18:15.711Z,30.84
2018-08-04T14:20:44.020Z,30.78
2018-08-04T14:23:12.350Z,30.94
2018-08-04T14:25:40.774Z,31.05
2018-08-04T14:28:09.183Z,31.10
2018-08-04T14:30:37.488Z,31.04
2018-08-04T14:33:05.871Z,31.18
2018-08-04T14:35:34.170Z,31.13
2018-08-04T14:38:02.449Z,31.02
2018-08-04T14:40:30.907Z,30.82
2018-08-04T14:42:59.408Z,30.74
2018-08-04T14:45:27.742Z,30.80
2018-08-04T14:47:56.006Z,31.14
2018-08-04T14:50:24.463Z,31.21
2018-08-04T14:52:52.806Z,30.87
2018-08-04T14:55:21.213Z,31.19
2018-08-04T14:57:49.533Z,31.25
2018-08-04T15:00:17.854Z,31.02
2018-08-04T15:02:46.149Z,30.98
2018-08-04T15:05:14.467Z,30.63
2018-08-04T15:07:43.933Z,30.50
2018-08-04T15:10:12.286Z,30.77
2018-08-04T15:12:40.866Z,30.93
2018-08-04T15:15:09.336Z,30.91
2018-08-04T15:17:37.746Z,31.19
2018-08-04T15:20:08.090Z,31.06
2018-08-04T15:22:36.506Z,30.81
2018-08-04T15:25:05.490Z,30.87
2018-08-04T15:27:34.667Z,30.99
2018-08-04T15:30:03.226Z,30.66
2018-08-04T15:32:31.590Z,30.78
2018-08-04T15:35:00.114Z,30.92
2018-08-04T15:37:28.782Z,31.11
2018-08-04T15:39:57.069Z,30.93
2018-08-04T15:42:25.384Z,31.16
2018-08-04T15:44:53.879Z,31.03
2018-08-04T15:47:22.253Z,31.00
2018-08-04T15:49:50.557Z,30.90
2018-08-04T15:52:19.278Z,30.97
2018-08-04T15:54:47.596Z,30.80
2018-08-04T15:57:16.060Z,30.81
2018-08-04T15:59:45.271Z,30.81
2018-08-04T16:02:13.609Z,30.74
2018-08-04T16:04:42.067Z,30.41
2018-08-04T16:07:10.540Z,30.62
2018-08-04T16:09:39.002Z,30.58
2018-08-04T16:12:07.834Z,30.71
2018-08-04T16:14:36.214Z,30.48
2018-08-04T16:17:04.526Z,30.40
2018-08-04T16:19:32.854Z,30.15
2018-08-04T16:22:01.249Z,30.41
2018-08-04T16:24:29.598Z,30.51
2018-08-04T16:26:57.966Z,30.64
2018-08-04T16:29:26.470Z,30.73
2018-08-04T16:32:04.537Z,30.61
2018-08-04T16:34:32.859Z,30.66
2018-08-04T16:37:01.248Z,30.45
2018-08-04T16:39:29.639Z,30.30
2018-08-04T16:41:58.316Z,30.31
2018-08-04T16:44:26.665Z,30.37
2018-08-04T16:46:55.000Z,30.47
2018-08-04T16:49:23.402Z,30.44
2018-08-04T16:51:51.774Z,30.45
2018-08-04T16:54:20.104Z,30.41
2018-08-04T16:56:48.461Z,30.35
2018-08-04T16:59:16.797Z,30.42
2018-08-04T17:01:45.277Z,30.44
2018-08-04T17:04:13.649Z,30.09
2018-08-04T17:06:41.977Z,30.07
2018-08-04T17:09:12.059Z,30.03
2018-08-04T17:11:40.419Z,29.90
2018-08-04T17:14:09.189Z,30.08
2018-08-04T17:16:37.505Z,29.99
2018-08-04T17:19:06.131Z,29.90
2018-08-04T17:21:34.566Z,29.92
2018-08-04T17:24:03.012Z,29.84
2018-08-04T17:26:31.316Z,29.67
2018-08-04T17:28:59.733Z,29.67
2018-08-04T17:31:28.086Z,29.77
2018-08-04T17:33:56.386Z,29.71
2018-08-04T17:36:24.966Z,29.71
2018-08-04T17:38:53.361Z,29.80
2018-08-04T17:41:21.711Z,29.70
2018-08-04T17:43:50.154Z,29.64
2018-08-04T17:46:18.487Z,29.63
2018-08-04T17:48:46.790Z,29.63
2018-08-04T17:51:15.092Z,29.49
2018-08-04T17:53:43.520Z,29.47
2018-08-04T17:56:11.940Z,29.41
2018-08-04T17:58:40.264Z,29.31
2018-08-04T18:01:08.622Z,29.17
2018-08-04T18:03:36.962Z,29.14
2018-08-04T18:06:05.379Z,29.27
2018-08-04T18:08:33.833Z,29.15
2018-08-04T18:11:02.273Z,29.09
2018-08-04T18:13:30.558Z,28.92
2018-08-04T18:15:58.989Z,28.86
2018-08-04T18:18:27.419Z,28.86
2018-08-04T18:20:55.782Z,28.81
2018-08-04T18:23:24.157Z,28.67
2018-08-04T18:25:52.467Z,28.52
2018-08-04T18:28:20.802Z,28.36
2018-08-04T18:30:49.235Z,28.36
2018-08-04T18:33:17.632Z,28.22
2018-08-04T18:35:46.111Z,28.09
2018-08-04T18:38:14.649Z,27.99
2018-08-04T18:40:43.102Z,27.94
2018-08-04T18:43:12.439Z,27.94
2018-08-04T18:45:40.825Z,27.83
2018-08-04T18:48:09.184Z,27.72
2018-08-04T18:50:37.506Z,27.70
2018-08-04T18:53:06.020Z,27.59
2018-08-04T18:55:34.354Z,27.61
2018-08-04T18:58:02.662Z,27.56
2018-08-04T19:00:31.072Z,27.57
2018-08-04T19:02:59.427Z,27.34
2018-08-04T19:05:27.786Z,27.37
2018-08-04T19:07:56.129Z,27.52
2018-08-04T19:10:24.506Z,27.40
2018-08-04T19:12:52.870Z,27.40
2018-08-04T19:15:21.286Z,27.33
2018-08-04T19:17:49.642Z,27.12
2018-08-04T19:20:18.085Z,26.94
2018-08-04T19:22:46.390Z,26.97
2018-08-04T19:25:14.850Z,26.64
2018-08-04T19:27:43.448Z,26.46
2018-08-04T19:30:11.768Z,26.38
2018-08-04T19:32:40.111Z,26.65
2018-08-04T19:35:11.691Z,26.42
2018-08-04T19:37:41.851Z,26.34
2018-08-04T19:40:10.210Z,26.32
2018-08-04T19:42:38.633Z,26.11
2018-08-04T19:45:07.088Z,26.13
2018-08-04T19:47:37.356Z,26.31
2018-08-04T19:50:05.828Z,26.27
2018-08-04T19:52:34.104Z,26.22
2018-08-04T19:55:02.437Z,26.34
2018-08-04T19:57:31.517Z,26.45
2018-08-04T19:59:59.866Z,26.25
2018-08-04T20:02:28.191Z,25.90
2018-08-04T20:04:56.570Z,25.81
2018-08-04T20:07:25.897Z,25.82
2018-08-04T20:09:54.339Z,25.61
2018-08-04T20:12:22.683Z,25.71
2018-08-04T20:14:51.083Z,25.65
2018-08-04T20:17:19.348Z,25.59
2018-08-04T20:19:49.193Z,25.55
2018-08-04T20:22:18.004Z,25.56
2018-08-04T20:24:46.649Z,25.10
2018-08-04T20:27:15.198Z,24.99
2018-08-04T20:29:43.613Z,24.96
2018-08-04T20:32:11.958Z,25.25
2018-08-04T20:34:42.408Z,25.50
2018-08-04T20:37:10.798Z,25.52
2018-08-04T20:39:39.118Z,25.53
2018-08-04T20:42:07.439Z,25.25
2018-08-04T20:44:37.695Z,25.32
2018-08-04T20:47:06.086Z,25.27
2018-08-04T20:49:34.370Z,25.35
2018-08-04T20:52:03.519Z,25.38
2018-08-04T20:54:31.886Z,25.39
2018-08-04T20:57:00.482Z,25.35
2018-08-04T20:59:29.030Z,25.16
2018-08-04T21:02:00.749Z,25.15
2018-08-04T21:04:31.301Z,24.89
2018-08-04T21:07:01.088Z,24.98
2018-08-04T21:09:29.524Z,24.97
2018-08-04T21:11:59.050Z,25.04
2018-08-04T21:14:28.705Z,24.95
2018-08-04T21:16:57.938Z,24.86
2018-08-04T21:19:26.642Z,24.94
2018-08-04T21:21:55.028Z,24.91
2018-08-04T21:24:24.442Z,24.76
2018-08-04T21:26:53.613Z,24.74
2018-08-04T21:29:22.675Z,24.79
2018-08-04T21:31:51.058Z,24.78
2018-08-04T21:34:19.421Z,24.55
2018-08-04T21:36:47.702Z,24.60
2018-08-04T21:39:18.179Z,24.56
2018-08-04T21:41:47.286Z,24.48
2018-08-04T21:44:15.689Z,24.61
2018-08-04T21:46:46.094Z,24.38
2018-08-04T21:49:14.493Z,24.40
2018-08-04T21:51:44.174Z,24.31
2018-08-04T21:54:13.770Z,24.30
2018-08-04T21:56:42.487Z,24.46
2018-08-04T21:59:11.029Z,24.26
2018-08-04T22:01:41.601Z,24.13
2018-08-04T22:04:09.827Z,23.91
2018-08-04T22:07:49.098Z,24.07
2018-08-04T22:10:17.415Z,23.95
2018-08-04T22:12:47.081Z,23.83
2018-08-04T22:15:16.138Z,23.88
2018-08-04T22:17:44.649Z,23.80
2018-08-04T22:20:15.058Z,23.87
2018-08-04T22:22:43.978Z,23.86
2018-08-04T22:25:13.646Z,23.75
2018-08-04T22:27:42.063Z,23.76
2018-08-04T22:30:12.902Z,23.56
2018-08-04T22:32:41.707Z,23.64
2018-08-04T22:35:10.023Z,23.51
2018-08-04T22:37:39.017Z,23.54
2018-08-04T22:40:08.194Z,23.56
2018-08-04T22:42:36.936Z,23.62
2018-08-04T22:45:16.620Z,23.44
2018-08-04T22:47:45.426Z,23.58
2018-08-04T22:50:13.726Z,23.45
2018-08-04T22:52:42.061Z,23.45
2018-08-04T22:55:10.375Z,23.51
2018-08-04T22:57:38.678Z,23.38
2018-08-04T23:00:07.717Z,23.41
2018-08-04T23:02:35.987Z,23.31
2018-08-04T23:05:04.359Z,23.30
2018-08-04T23:07:32.655Z,23.31
2018-08-04T23:10:01.018Z,23.31
2018-08-04T23:12:29.419Z,23.35
2018-08-04T23:14:57.743Z,23.20
2018-08-04T23:17:26.117Z,23.07
2018-08-04T23:19:54.413Z,23.04
2018-08-04T23:22:22.706Z,23.02
2018-08-04T23:24:51.171Z,23.01
2018-08-04T23:27:19.580Z,22.99
2018-08-04T23:29:47.882Z,22.76
2018-08-04T23:32:16.155Z,22.92
2018-08-04T23:34:44.486Z,22.84
2018-08-04T23:37:12.819Z,22.75
2018-08-04T23:39:41.199Z,22.58
2018-08-04T23:42:09.494Z,22.65
2018-08-04T23:44:37.833Z,22.67
2018-08-04T23:47:06.199Z,22.57
2018-08-04T23:49:34.535Z,22.63
2018-08-04T23:52:02.874Z,22.46
2018-08-04T23:54:31.154Z,22.42
2018-08-04T23:56:59.514Z,22.43
2018-08-04T23:59:27.845Z,22.36
